sensor_id;sensor_type;location;lat;lon;timestamp;pressure;altitude;pressure_sealevel;temperature;humidity
38716;BME280;24833;49.324;8.694;2024-01-15T00:01:08;98861.84;;;-3.27;95.25
38716;BME280;24833;49.324;8.694;2024-01-15T00:03:35;98859.09;;;-3.26;95.28
38716;BME280;24833;49.324;8.694;2024-01-15T00:06:02;98865.13;;;-3.25;95.27
38716;BME280;24833;49.324;8.694;2024-01-15T00:08:30;98848.53;;;-3.24;95.35
38716;BME280;24833;49.324;8.694;2024-01-15T00:10:57;98852.78;;;-3.23;95.29
38716;BME280;24833;49.324;8.694;2024-01-15T00:13:24;98850.03;;;-3.22;95.27
38716;BME280;24833;49.324;8.694;2024-01-15T00:15:51;98860.47;;;-3.22;95.42
38716;BME280;24833;49.324;8.694;2024-01-15T00:18:18;98848.13;;;-3.20;95.36
38716;BME280;24833;49.324;8.694;2024-01-15T00:20:45;98838.50;;;-3.19;95.18
38716;BME280;24833;49.324;8.694;2024-01-15T00:23:12;98841.00;;;-3.18;95.32
38716;BME280;24833;49.324;8.694;2024-01-15T00:25:40;98833.97;;;-3.17;95.15
38716;BME280;24833;49.324;8.694;2024-01-15T00:28:08;98819.97;;;-3.16;95.31
38716;BME280;24833;49.324;8.694;2024-01-15T00:30:35;98819.16;;;-3.17;95.18
38716;BME280;24833;49.324;8.694;2024-01-15T00:33:02;98819.00;;;-3.15;95.35
38716;BME280;24833;49.324;8.694;2024-01-15T00:35:29;98811.06;;;-3.14;95.48
38716;BME280;24833;49.324;8.694;2024-01-15T00:37:56;98810.09;;;-3.13;95.32
38716;BME280;24833;49.324;8.694;2024-01-15T00:40:23;98809.97;;;-3.11;95.50
38716;BME280;24833;49.324;8.694;2024-01-15T00:42:52;98820.41;;;-3.11;95.48
38716;BME280;24833;49.324;8.694;2024-01-15T00:45:19;98819.44;;;-3.10;95.26
38716;BME280;24833;49.324;8.694;2024-01-15T00:47:46;98810.78;;;-3.11;95.56
38716;BME280;24833;49.324;8.694;2024-01-15T00:50:13;98806.25;;;-3.09;95.58
38716;BME280;24833;49.324;8.694;2024-01-15T00:52:41;98803.63;;;-3.09;95.59
38716;BME280;24833;49.324;8.694;2024-01-15T00:55:08;98801.75;;;-3.07;95.61
38716;BME280;24833;49.324;8.694;2024-01-15T00:57:35;98806.13;;;-3.07;95.71
38716;BME280;24833;49.324;8.694;2024-01-15T01:00:02;98799.13;;;-3.07;95.65
38716;BME280;24833;49.324;8.694;2024-01-15T01:02:32;98802.56;;;-3.06;95.67
38716;BME280;24833;49.324;8.694;2024-01-15T01:04:59;98805.03;;;-3.05;95.67
38716;BME280;24833;49.324;8.694;2024-01-15T01:07:27;98807.66;;;-3.05;95.68
38716;BME280;24833;49.324;8.694;2024-01-15T01:09:54;98783.19;;;-3.04;95.64
38716;BME280;24833;49.324;8.694;2024-01-15T01:12:22;98788.28;;;-3.02;95.74
38716;BME280;24833;49.324;8.694;2024-01-15T01:14:49;98790.78;;;-3.00;95.80
38716;BME280;24833;49.324;8.694;2024-01-15T01:17:16;98798.59;;;-3.00;95.69
38716;BME280;24833;49.324;8.694;2024-01-15T01:19:43;98792.41;;;-2.99;95.72
38716;BME280;24833;49.324;8.694;2024-01-15T01:22:10;98793.25;;;-2.99;95.83
38716;BME280;24833;49.324;8.694;2024-01-15T01:24:37;98787.06;;;-2.98;95.77
38716;BME280;24833;49.324;8.694;2024-01-15T01:27:04;98792.13;;;-2.96;96.02
38716;BME280;24833;49.324;8.694;2024-01-15T01:29:31;98785.25;;;-2.97;95.76
38716;BME280;24833;49.324;8.694;2024-01-15T01:31:59;98783.34;;;-2.95;95.85
38716;BME280;24833;49.324;8.694;2024-01-15T01:34:26;98784.97;;;-2.94;95.81
38716;BME280;24833;49.324;8.694;2024-01-15T01:36:53;98796.13;;;-2.92;95.92
38716;BME280;24833;49.324;8.694;2024-01-15T01:39:20;98797.78;;;-2.91;96.03
38716;BME280;24833;49.324;8.694;2024-01-15T01:41:47;98791.59;;;-2.90;95.89
38716;BME280;24833;49.324;8.694;2024-01-15T01:44:14;98802.72;;;-2.88;95.99
38716;BME280;24833;49.324;8.694;2024-01-15T01:46:42;98796.56;;;-2.87;96.12
38716;BME280;24833;49.324;8.694;2024-01-15T01:49:09;98786.13;;;-2.87;96.12
38716;BME280;24833;49.324;8.694;2024-01-15T01:51:36;98790.38;;;-2.86;96.02
38716;BME280;24833;49.324;8.694;2024-01-15T01:54:07;98796.28;;;-2.84;96.11
38716;BME280;24833;49.324;8.694;2024-01-15T01:56:35;98798.91;;;-2.84;96.20
38716;BME280;24833;49.324;8.694;2024-01-15T01:59:02;98792.72;;;-2.83;96.16
38716;BME280;24833;49.324;8.694;2024-01-15T02:01:31;98791.75;;;-2.82;96.12
38716;BME280;24833;49.324;8.694;2024-01-15T02:03:59;98784.72;;;-2.82;96.29
38716;BME280;24833;49.324;8.694;2024-01-15T02:06:27;98781.19;;;-2.81;96.22
38716;BME280;24833;49.324;8.694;2024-01-15T02:08:54;98787.22;;;-2.80;96.27
38716;BME280;24833;49.324;8.694;2024-01-15T02:11:21;98779.41;;;-2.80;96.27
38716;BME280;24833;49.324;8.694;2024-01-15T02:13:49;98780.06;;;-2.78;96.21
38716;BME280;24833;49.324;8.694;2024-01-15T02:16:16;98786.13;;;-2.78;96.29
38716;BME280;24833;49.324;8.694;2024-01-15T02:18:46;98780.91;;;-2.78;96.00
38716;BME280;24833;49.324;8.694;2024-01-15T02:21:13;98776.50;;;-2.77;96.24
38716;BME280;24833;49.324;8.694;2024-01-15T02:23:40;98771.28;;;-2.77;96.31
38716;BME280;24833;49.324;8.694;2024-01-15T02:26:08;98771.28;;;-2.77;96.06
38716;BME280;24833;49.324;8.694;2024-01-15T02:28:35;98766.88;;;-2.77;96.20
38716;BME280;24833;49.324;8.694;2024-01-15T02:31:03;98770.44;;;-2.78;96.39
38716;BME280;24833;49.324;8.694;2024-01-15T02:33:30;98772.91;;;-2.76;96.31
38716;BME280;24833;49.324;8.694;2024-01-15T02:35:57;98778.16;;;-2.76;96.24
38716;BME280;24833;49.324;8.694;2024-01-15T02:38:24;98774.56;;;-2.75;96.21
38716;BME280;24833;49.324;8.694;2024-01-15T02:40:51;98785.00;;;-2.75;96.17
38716;BME280;24833;49.324;8.694;2024-01-15T02:43:18;98772.91;;;-2.76;96.18
38716;BME280;24833;49.324;8.694;2024-01-15T02:45:46;98781.59;;;-2.76;96.12
38716;BME280;24833;49.324;8.694;2024-01-15T02:48:14;98774.56;;;-2.75;96.11
38716;BME280;24833;49.324;8.694;2024-01-15T02:50:41;98780.63;;;-2.75;96.14
38716;BME280;24833;49.324;8.694;2024-01-15T02:53:08;98775.38;;;-2.75;96.17
38716;BME280;24833;49.324;8.694;2024-01-15T02:55:35;98769.22;;;-2.73;96.03
38716;BME280;24833;49.324;8.694;2024-01-15T02:58:03;98764.13;;;-2.75;96.07
38716;BME280;24833;49.324;8.694;2024-01-15T03:00:30;98764.00;;;-2.73;96.04
38716;BME280;24833;49.324;8.694;2024-01-15T03:02:58;98764.13;;;-2.75;96.03
38716;BME280;24833;49.324;8.694;2024-01-15T03:05:25;98762.34;;;-2.75;96.28
38716;BME280;24833;49.324;8.694;2024-01-15T03:07:52;98762.34;;;-2.75;96.04
38716;BME280;24833;49.324;8.694;2024-01-15T03:10:19;98755.47;;;-2.76;96.06
38716;BME280;24833;49.324;8.694;2024-01-15T03:12:46;98753.69;;;-2.75;96.06
38716;BME280;24833;49.324;8.694;2024-01-15T03:15:13;98752.03;;;-2.76;96.07
38716;BME280;24833;49.324;8.694;2024-01-15T03:17:41;98731.13;;;-2.76;96.05
38716;BME280;24833;49.324;8.694;2024-01-15T03:20:10;98725.91;;;-2.76;96.09
38716;BME280;24833;49.324;8.694;2024-01-15T03:22:37;98756.44;;;-2.77;96.00
38716;BME280;24833;49.324;8.694;2024-01-15T03:25:06;98778.16;;;-2.76;95.95
38716;BME280;24833;49.324;8.694;2024-01-15T03:27:33;98789.56;;;-2.77;96.03
38716;BME280;24833;49.324;8.694;2024-01-15T03:30:00;98766.88;;;-2.77;96.02
38716;BME280;24833;49.324;8.694;2024-01-15T03:32:29;98760.84;;;-2.77;96.04
38716;BME280;24833;49.324;8.694;2024-01-15T03:34:56;98762.63;;;-2.78;96.02
38716;BME280;24833;49.324;8.694;2024-01-15T03:37:23;98766.06;;;-2.77;95.93
38716;BME280;24833;49.324;8.694;2024-01-15T03:39:50;98760.84;;;-2.77;96.14
38716;BME280;24833;49.324;8.694;2024-01-15T03:42:17;98755.59;;;-2.77;96.03
38716;BME280;24833;49.324;8.694;2024-01-15T03:44:44;98757.25;;;-2.76;95.97
38716;BME280;24833;49.324;8.694;2024-01-15T03:47:11;98770.31;;;-2.76;96.21
38716;BME280;24833;49.324;8.694;2024-01-15T03:49:38;98768.53;;;-2.76;96.13
38716;BME280;24833;49.324;8.694;2024-01-15T03:52:06;98748.44;;;-2.75;96.25
38716;BME280;24833;49.324;8.694;2024-01-15T03:54:33;98742.41;;;-2.76;96.07
38716;BME280;24833;49.324;8.694;2024-01-15T03:57:00;98756.28;;;-2.75;96.21
38716;BME280;24833;49.324;8.694;2024-01-15T03:59:27;98751.06;;;-2.75;96.21
38716;BME280;24833;49.324;8.694;2024-01-15T04:01:54;98739.69;;;-2.74;96.10
38716;BME280;24833;49.324;8.694;2024-01-15T04:04:21;98729.22;;;-2.74;96.06
38716;BME280;24833;49.324;8.694;2024-01-15T04:06:48;98730.88;;;-2.73;96.12
38716;BME280;24833;49.324;8.694;2024-01-15T04:09:15;98731.69;;;-2.72;96.19
38716;BME280;24833;49.324;8.694;2024-01-15T04:11:43;98727.28;;;-2.72;96.15
38716;BME280;24833;49.324;8.694;2024-01-15T04:14:10;98724.69;;;-2.72;96.28
38716;BME280;24833;49.324;8.694;2024-01-15T04:16:37;98711.63;;;-2.72;96.18
38716;BME280;24833;49.324;8.694;2024-01-15T04:19:04;98701.19;;;-2.72;96.27
38716;BME280;24833;49.324;8.694;2024-01-15T04:21:32;98709.69;;;-2.70;96.30
38716;BME280;24833;49.324;8.694;2024-01-15T04:23:59;98725.38;;;-2.70;96.32
38716;BME280;24833;49.324;8.694;2024-01-15T04:26:26;98725.38;;;-2.70;96.35
38716;BME280;24833;49.324;8.694;2024-01-15T04:28:53;98714.91;;;-2.70;96.38
38716;BME280;24833;49.324;8.694;2024-01-15T04:31:25;98709.69;;;-2.70;96.39
38716;BME280;24833;49.324;8.694;2024-01-15T04:33:54;98706.94;;;-2.68;96.32
38716;BME280;24833;49.324;8.694;2024-01-15T04:36:22;98708.72;;;-2.69;96.38
38716;BME280;24833;49.324;8.694;2024-01-15T04:38:49;98703.50;;;-2.69;96.30
38716;BME280;24833;49.324;8.694;2024-01-15T04:41:16;98697.31;;;-2.68;96.29
38716;BME280;24833;49.324;8.694;2024-01-15T04:43:44;98701.72;;;-2.68;96.42
38716;BME280;24833;49.324;8.694;2024-01-15T04:46:11;98711.22;;;-2.67;96.47
38716;BME280;24833;49.324;8.694;2024-01-15T04:48:38;98705.03;;;-2.66;96.45
38716;BME280;24833;49.324;8.694;2024-01-15T04:51:08;98712.72;;;-2.65;96.49
38716;BME280;24833;49.324;8.694;2024-01-15T04:53:36;98700.63;;;-2.66;96.66
38716;BME280;24833;49.324;8.694;2024-01-15T04:56:03;98705.84;;;-2.66;96.45
38716;BME280;24833;49.324;8.694;2024-01-15T04:58:30;98704.06;;;-2.65;96.37
38716;BME280;24833;49.324;8.694;2024-01-15T05:00:57;98705.72;;;-2.64;96.39
38716;BME280;24833;49.324;8.694;2024-01-15T05:03:24;98708.31;;;-2.64;96.58
38716;BME280;24833;49.324;8.694;2024-01-15T05:05:52;98705.56;;;-2.63;96.53
38716;BME280;24833;49.324;8.694;2024-01-15T05:08:19;98705.56;;;-2.63;96.73
38716;BME280;24833;49.324;8.694;2024-01-15T05:10:47;98700.34;;;-2.63;96.53
38716;BME280;24833;49.324;8.694;2024-01-15T05:13:14;98695.94;;;-2.62;96.53
38716;BME280;24833;49.324;8.694;2024-01-15T05:15:41;98693.22;;;-2.61;96.67
38716;BME280;24833;49.324;8.694;2024-01-15T05:18:08;98687.97;;;-2.61;96.60
38716;BME280;24833;49.324;8.694;2024-01-15T05:20:36;98677.53;;;-2.61;96.70
38716;BME280;24833;49.324;8.694;2024-01-15T05:23:03;98667.09;;;-2.61;96.40
38716;BME280;24833;49.324;8.694;2024-01-15T05:25:30;98664.47;;;-2.61;96.64
38716;BME280;24833;49.324;8.694;2024-01-15T05:27:57;98656.63;;;-2.61;96.36
38716;BME280;24833;49.324;8.694;2024-01-15T05:30:24;98662.69;;;-2.60;96.67
38716;BME280;24833;49.324;8.694;2024-01-15T05:32:52;98674.06;;;-2.61;96.63
38716;BME280;24833;49.324;8.694;2024-01-15T05:35:19;98673.94;;;-2.60;96.53
38716;BME280;24833;49.324;8.694;2024-01-15T05:37:46;98672.31;;;-2.61;96.79
38716;BME280;24833;49.324;8.694;2024-01-15T05:40:13;98661.84;;;-2.61;96.69
38716;BME280;24833;49.324;8.694;2024-01-15T05:42:41;98664.47;;;-2.61;96.68
38716;BME280;24833;49.324;8.694;2024-01-15T05:45:08;98657.47;;;-2.60;96.72
38716;BME280;24833;49.324;8.694;2024-01-15T05:47:35;98656.50;;;-2.59;96.69
38716;BME280;24833;49.324;8.694;2024-01-15T05:50:03;98662.38;;;-2.57;96.79
38716;BME280;24833;49.324;8.694;2024-01-15T05:52:30;98655.53;;;-2.58;96.79
38716;BME280;24833;49.324;8.694;2024-01-15T05:54:57;98642.31;;;-2.57;96.82
38716;BME280;24833;49.324;8.694;2024-01-15T05:57:24;98647.53;;;-2.57;96.82
38716;BME280;24833;49.324;8.694;2024-01-15T05:59:52;98659.63;;;-2.56;96.92
38716;BME280;24833;49.324;8.694;2024-01-15T06:02:19;98654.41;;;-2.56;96.95
38716;BME280;24833;49.324;8.694;2024-01-15T06:04:46;98652.50;;;-2.54;96.90
38716;BME280;24833;49.324;8.694;2024-01-15T06:07:13;98649.88;;;-2.54;96.98
38716;BME280;24833;49.324;8.694;2024-01-15T06:09:40;98666.22;;;-2.52;97.08
38716;BME280;24833;49.324;8.694;2024-01-15T06:12:08;98661.00;;;-2.52;97.08
38716;BME280;24833;49.324;8.694;2024-01-15T06:14:35;98655.63;;;-2.50;97.07
38716;BME280;24833;49.324;8.694;2024-01-15T06:17:02;98654.66;;;-2.49;97.19
38716;BME280;24833;49.324;8.694;2024-01-15T06:19:29;98660.59;;;-2.47;97.39
38716;BME280;24833;49.324;8.694;2024-01-15T06:21:57;98643.13;;;-2.47;97.23
38716;BME280;24833;49.324;8.694;2024-01-15T06:24:24;98663.06;;;-2.45;97.33
38716;BME280;24833;49.324;8.694;2024-01-15T06:26:51;98642.84;;;-2.43;97.31
38716;BME280;24833;49.324;8.694;2024-01-15T06:29:18;98643.50;;;-2.41;97.38
38716;BME280;24833;49.324;8.694;2024-01-15T06:31:45;98646.00;;;-2.40;97.50
38716;BME280;24833;49.324;8.694;2024-01-15T06:34:15;98651.91;;;-2.38;97.43
38716;BME280;24833;49.324;8.694;2024-01-15T06:36:42;98655.34;;;-2.37;97.51
38716;BME280;24833;49.324;8.694;2024-01-15T06:39:10;98650.78;;;-2.35;97.61
38716;BME280;24833;49.324;8.694;2024-01-15T06:41:37;98656.72;;;-2.33;97.46
38716;BME280;24833;49.324;8.694;2024-01-15T06:44:10;98646.09;;;-2.32;97.73
38716;BME280;24833;49.324;8.694;2024-01-15T06:46:43;98647.75;;;-2.31;97.58
38716;BME280;24833;49.324;8.694;2024-01-15T06:49:11;98650.22;;;-2.29;97.76
38716;BME280;24833;49.324;8.694;2024-01-15T06:51:39;98655.19;;;-2.26;97.80
38716;BME280;24833;49.324;8.694;2024-01-15T06:54:06;98650.78;;;-2.26;97.63
38716;BME280;24833;49.324;8.694;2024-01-15T06:56:33;98647.19;;;-2.25;97.95
38716;BME280;24833;49.324;8.694;2024-01-15T06:59:00;98654.88;;;-2.23;97.78
38716;BME280;24833;49.324;8.694;2024-01-15T07:01:27;98645.09;;;-2.21;97.73
38716;BME280;24833;49.324;8.694;2024-01-15T07:03:54;98642.47;;;-2.21;97.73
38716;BME280;24833;49.324;8.694;2024-01-15T07:06:22;98637.25;;;-2.21;97.83
38716;BME280;24833;49.324;8.694;2024-01-15T07:08:49;98649.22;;;-2.18;97.78
38716;BME280;24833;49.324;8.694;2024-01-15T07:11:16;98650.06;;;-2.18;97.87
38716;BME280;24833;49.324;8.694;2024-01-15T07:13:44;98654.31;;;-2.17;97.86
38716;BME280;24833;49.324;8.694;2024-01-15T07:16:11;98653.34;;;-2.16;98.06
38716;BME280;24833;49.324;8.694;2024-01-15T07:18:38;98651.53;;;-2.15;97.98
38716;BME280;24833;49.324;8.694;2024-01-15T07:21:05;98661.03;;;-2.14;97.84
38716;BME280;24833;49.324;8.694;2024-01-15T07:23:32;98660.09;;;-2.13;97.90
38716;BME280;24833;49.324;8.694;2024-01-15T07:25:59;98657.31;;;-2.12;97.86
38716;BME280;24833;49.324;8.694;2024-01-15T07:28:29;98661.59;;;-2.11;98.05
38716;BME280;24833;49.324;8.694;2024-01-15T07:30:56;98659.78;;;-2.10;97.85
38716;BME280;24833;49.324;8.694;2024-01-15T07:33:24;98657.84;;;-2.08;98.01
38716;BME280;24833;49.324;8.694;2024-01-15T07:35:51;98656.06;;;-2.08;98.07
38716;BME280;24833;49.324;8.694;2024-01-15T07:38:18;98655.13;;;-2.07;98.10
38716;BME280;24833;49.324;8.694;2024-01-15T07:40:45;98660.19;;;-2.05;98.13
38716;BME280;24833;49.324;8.694;2024-01-15T07:43:16;98657.28;;;-2.02;98.09
38716;BME280;24833;49.324;8.694;2024-01-15T07:45:43;98658.94;;;-2.01;98.17
38716;BME280;24833;49.324;8.694;2024-01-15T07:48:12;98662.25;;;-1.99;98.27
38716;BME280;24833;49.324;8.694;2024-01-15T07:50:39;98656.84;;;-1.98;98.15
38716;BME280;24833;49.324;8.694;2024-01-15T07:53:06;98652.31;;;-1.96;98.26
38716;BME280;24833;49.324;8.694;2024-01-15T07:55:33;98656.56;;;-1.95;98.36
38716;BME280;24833;49.324;8.694;2024-01-15T07:58:00;98644.19;;;-1.93;98.22
38716;BME280;24833;49.324;8.694;2024-01-15T08:00:41;98660.53;;;-1.90;98.26
38716;BME280;24833;49.324;8.694;2024-01-15T08:03:08;98650.09;;;-1.90;98.40
38716;BME280;24833;49.324;8.694;2024-01-15T08:05:35;98650.75;;;-1.88;98.27
38716;BME280;24833;49.324;8.694;2024-01-15T08:08:03;98637.69;;;-1.88;98.25
38716;BME280;24833;49.324;8.694;2024-01-15T08:10:30;98641.00;;;-1.86;98.15
38716;BME280;24833;49.324;8.694;2024-01-15T08:12:57;98634.78;;;-1.85;98.18
38716;BME280;24833;49.324;8.694;2024-01-15T08:15:24;98633.00;;;-1.85;98.30
38716;BME280;24833;49.324;8.694;2024-01-15T08:17:57;98634.63;;;-1.84;98.33
38716;BME280;24833;49.324;8.694;2024-01-15T08:20:24;98632.84;;;-1.83;98.33
38716;BME280;24833;49.324;8.694;2024-01-15T08:22:52;98633.50;;;-1.81;98.23
38716;BME280;24833;49.324;8.694;2024-01-15T08:25:19;98622.09;;;-1.80;98.15
38716;BME280;24833;49.324;8.694;2024-01-15T08:27:46;98632.41;;;-1.79;98.26
38716;BME280;24833;49.324;8.694;2024-01-15T08:30:14;98633.22;;;-1.78;98.29
38716;BME280;24833;49.324;8.694;2024-01-15T08:32:41;98624.41;;;-1.77;98.27
38716;BME280;24833;49.324;8.694;2024-01-15T08:35:10;98632.94;;;-1.75;98.31
38716;BME280;24833;49.324;8.694;2024-01-15T08:37:38;98639.81;;;-1.74;98.27
38716;BME280;24833;49.324;8.694;2024-01-15T08:40:06;98631.00;;;-1.73;98.10
38716;BME280;24833;49.324;8.694;2024-01-15T08:42:33;98618.59;;;-1.71;98.40
38716;BME280;24833;49.324;8.694;2024-01-15T08:45:00;98623.69;;;-1.70;98.39
38716;BME280;24833;49.324;8.694;2024-01-15T08:47:28;98621.72;;;-1.68;98.38
38716;BME280;24833;49.324;8.694;2024-01-15T08:49:55;98620.91;;;-1.68;98.69
38716;BME280;24833;49.324;8.694;2024-01-15T08:52:23;98611.13;;;-1.66;98.44
38716;BME280;24833;49.324;8.694;2024-01-15T08:54:50;98614.44;;;-1.64;98.54
38716;BME280;24833;49.324;8.694;2024-01-15T08:57:17;98616.06;;;-1.63;98.38
38716;BME280;24833;49.324;8.694;2024-01-15T08:59:44;98625.44;;;-1.60;98.48
38716;BME280;24833;49.324;8.694;2024-01-15T09:02:12;98633.13;;;-1.59;98.55
38716;BME280;24833;49.324;8.694;2024-01-15T09:04:39;98645.91;;;-1.56;98.47
38716;BME280;24833;49.324;8.694;2024-01-15T09:07:07;98637.09;;;-1.55;98.67
38716;BME280;24833;49.324;8.694;2024-01-15T09:09:34;98624.69;;;-1.53;98.77
38716;BME280;24833;49.324;8.694;2024-01-15T09:12:02;98619.16;;;-1.50;98.71
38716;BME280;24833;49.324;8.694;2024-01-15T09:14:29;98616.38;;;-1.48;98.81
38716;BME280;24833;49.324;8.694;2024-01-15T09:17:04;98622.16;;;-1.45;98.70
38716;BME280;24833;49.324;8.694;2024-01-15T09:19:31;98609.88;;;-1.44;98.80
38716;BME280;24833;49.324;8.694;2024-01-15T09:21:59;98626.25;;;-1.42;98.84
38716;BME280;24833;49.324;8.694;2024-01-15T09:24:27;98616.50;;;-1.40;98.78
38716;BME280;24833;49.324;8.694;2024-01-15T09:26:55;98619.78;;;-1.38;98.90
38716;BME280;24833;49.324;8.694;2024-01-15T09:29:23;98618.63;;;-1.35;98.87
38716;BME280;24833;49.324;8.694;2024-01-15T09:31:51;98617.53;;;-1.33;98.75
38716;BME280;24833;49.324;8.694;2024-01-15T09:34:19;98615.75;;;-1.32;99.00
38716;BME280;24833;49.324;8.694;2024-01-15T09:36:46;98611.16;;;-1.30;99.16
38716;BME280;24833;49.324;8.694;2024-01-15T09:39:14;98624.91;;;-1.28;99.07
38716;BME280;24833;49.324;8.694;2024-01-15T09:41:43;98620.38;;;-1.26;99.07
38716;BME280;24833;49.324;8.694;2024-01-15T09:44:10;98623.66;;;-1.24;99.20
38716;BME280;24833;49.324;8.694;2024-01-15T09:46:39;98629.56;;;-1.22;99.31
38716;BME280;24833;49.324;8.694;2024-01-15T09:49:06;98620.72;;;-1.21;99.23
38716;BME280;24833;49.324;8.694;2024-01-15T09:51:35;98608.63;;;-1.22;99.31
38716;BME280;24833;49.324;8.694;2024-01-15T09:54:03;98610.25;;;-1.21;99.13
38716;BME280;24833;49.324;8.694;2024-01-15T09:56:31;98601.47;;;-1.20;99.28
38716;BME280;24833;49.324;8.694;2024-01-15T09:58:58;98599.78;;;-1.21;99.30
38716;BME280;24833;49.324;8.694;2024-01-15T10:01:27;98605.03;;;-1.21;99.29
38716;BME280;24833;49.324;8.694;2024-01-15T10:03:55;98593.88;;;-1.23;99.36
38716;BME280;24833;49.324;8.694;2024-01-15T10:06:22;98600.09;;;-1.24;99.12
38716;BME280;24833;49.324;8.694;2024-01-15T10:08:51;98593.22;;;-1.25;99.43
38716;BME280;24833;49.324;8.694;2024-01-15T10:11:18;98601.06;;;-1.25;99.68
38716;BME280;24833;49.324;8.694;2024-01-15T10:13:46;98591.59;;;-1.26;99.68
38716;BME280;24833;49.324;8.694;2024-01-15T10:16:16;98585.53;;;-1.27;99.71
38716;BME280;24833;49.324;8.694;2024-01-15T10:18:43;98582.06;;;-1.27;99.70
38716;BME280;24833;49.324;8.694;2024-01-15T10:21:11;98579.44;;;-1.27;99.75
38716;BME280;24833;49.324;8.694;2024-01-15T10:23:38;98575.06;;;-1.27;99.99
38716;BME280;24833;49.324;8.694;2024-01-15T10:26:05;98567.19;;;-1.27;100.00
38716;BME280;24833;49.324;8.694;2024-01-15T10:28:32;98562.78;;;-1.26;100.00
38716;BME280;24833;49.324;8.694;2024-01-15T10:31:00;98564.44;;;-1.25;100.00
38716;BME280;24833;49.324;8.694;2024-01-15T10:33:28;98561.00;;;-1.26;100.00
38716;BME280;24833;49.324;8.694;2024-01-15T10:36:00;98561.81;;;-1.25;100.00
38716;BME280;24833;49.324;8.694;2024-01-15T10:38:27;98564.25;;;-1.24;100.00
38716;BME280;24833;49.324;8.694;2024-01-15T10:40:55;98559.03;;;-1.24;100.00
38716;BME280;24833;49.324;8.694;2024-01-15T10:43:23;98566.72;;;-1.22;100.00
38716;BME280;24833;49.324;8.694;2024-01-15T10:45:55;98550.19;;;-1.23;100.00
38716;BME280;24833;49.324;8.694;2024-01-15T10:48:22;98551.03;;;-1.22;100.00
38716;BME280;24833;49.324;8.694;2024-01-15T10:50:50;98546.59;;;-1.22;100.00
38716;BME280;24833;49.324;8.694;2024-01-15T10:53:17;98554.34;;;-1.20;100.00
38716;BME280;24833;49.324;8.694;2024-01-15T10:55:46;98557.91;;;-1.21;100.00
38716;BME280;24833;49.324;8.694;2024-01-15T10:58:16;98554.34;;;-1.20;100.00
38716;BME280;24833;49.324;8.694;2024-01-15T11:00:44;98553.34;;;-1.19;100.00
38716;BME280;24833;49.324;8.694;2024-01-15T11:03:12;98552.38;;;-1.18;100.00
38716;BME280;24833;49.324;8.694;2024-01-15T11:05:44;98555.66;;;-1.16;100.00
38716;BME280;24833;49.324;8.694;2024-01-15T11:08:11;98546.00;;;-1.16;100.00
38716;BME280;24833;49.324;8.694;2024-01-15T11:10:40;98545.84;;;-1.14;100.00
38716;BME280;24833;49.324;8.694;2024-01-15T11:16:04;98548.84;;;-1.09;100.00
38716;BME280;24833;49.324;8.694;2024-01-15T11:19:00;98543.31;;;-1.06;100.00
38716;BME280;24833;49.324;8.694;2024-01-15T11:21:28;98534.31;;;-1.03;100.00
38716;BME280;24833;49.324;8.694;2024-01-15T11:24:00;98529.72;;;-1.01;100.00
38716;BME280;24833;49.324;8.694;2024-01-15T11:29:01;98524.88;;;-0.96;100.00
38716;BME280;24833;49.324;8.694;2024-01-15T11:34:17;98521.78;;;-0.92;100.00
38716;BME280;24833;49.324;8.694;2024-01-15T11:41:59;98522.00;;;-0.85;100.00
38716;BME280;24833;49.324;8.694;2024-01-15T11:44:27;98533.13;;;-0.83;100.00
38716;BME280;24833;49.324;8.694;2024-01-15T11:47:02;98530.34;;;-0.82;100.00
38716;BME280;24833;49.324;8.694;2024-01-15T11:50:09;98532.69;;;-0.78;100.00
38716;BME280;24833;49.324;8.694;2024-01-15T11:52:39;98530.06;;;-0.78;100.00
38716;BME280;24833;49.324;8.694;2024-01-15T11:55:12;98530.72;;;-0.76;100.00
38716;BME280;24833;49.324;8.694;2024-01-15T11:57:52;98529.75;;;-0.75;100.00
38716;BME280;24833;49.324;8.694;2024-01-15T12:00:22;98534.00;;;-0.74;100.00
38716;BME280;24833;49.324;8.694;2024-01-15T12:02:50;98530.44;;;-0.73;100.00
38716;BME280;24833;49.324;8.694;2024-01-15T12:05:19;98530.28;;;-0.72;100.00
38716;BME280;24833;49.324;8.694;2024-01-15T12:07:49;98535.34;;;-0.70;100.00
38716;BME280;24833;49.324;8.694;2024-01-15T12:10:19;98537.81;;;-0.69;100.00
38716;BME280;24833;49.324;8.694;2024-01-15T12:13:12;98541.25;;;-0.68;100.00
38716;BME280;24833;49.324;8.694;2024-01-15T12:15:44;98536.69;;;-0.66;100.00
38716;BME280;24833;49.324;8.694;2024-01-15T12:18:16;98536.69;;;-0.66;100.00
38716;BME280;24833;49.324;8.694;2024-01-15T12:20:45;98535.72;;;-0.65;100.00
38716;BME280;24833;49.324;8.694;2024-01-15T12:23:15;98543.56;;;-0.65;100.00
38716;BME280;24833;49.324;8.694;2024-01-15T12:25:43;98534.72;;;-0.64;100.00
38716;BME280;24833;49.324;8.694;2024-01-15T12:28:11;98534.72;;;-0.64;100.00
38716;BME280;24833;49.324;8.694;2024-01-15T12:30:39;98535.38;;;-0.62;100.00
38716;BME280;24833;49.324;8.694;2024-01-15T12:33:07;98528.50;;;-0.63;100.00
38716;BME280;24833;49.324;8.694;2024-01-15T12:35:36;98542.28;;;-0.61;100.00
38716;BME280;24833;49.324;8.694;2024-01-15T12:38:04;98538.69;;;-0.60;100.00
38716;BME280;24833;49.324;8.694;2024-01-15T12:40:33;98545.41;;;-0.58;100.00
38716;BME280;24833;49.324;8.694;2024-01-15T12:43:05;98538.38;;;-0.57;100.00
38716;BME280;24833;49.324;8.694;2024-01-15T12:45:33;98541.66;;;-0.55;100.00
38716;BME280;24833;49.324;8.694;2024-01-15T12:48:03;98538.06;;;-0.54;100.00
38716;BME280;24833;49.324;8.694;2024-01-15T12:50:31;98537.09;;;-0.53;100.00
38716;BME280;24833;49.324;8.694;2024-01-15T12:53:00;98533.50;;;-0.52;100.00
38716;BME280;24833;49.324;8.694;2024-01-15T12:55:27;98545.47;;;-0.49;100.00
38716;BME280;24833;49.324;8.694;2024-01-15T12:57:54;98544.47;;;-0.48;100.00
38716;BME280;24833;49.324;8.694;2024-01-15T13:00:22;98546.13;;;-0.47;100.00
38716;BME280;24833;49.324;8.694;2024-01-15T13:02:50;98554.66;;;-0.45;100.00
38716;BME280;24833;49.324;8.694;2024-01-15T13:05:17;98548.44;;;-0.44;100.00
38716;BME280;24833;49.324;8.694;2024-01-15T13:07:45;98553.53;;;-0.43;100.00
38716;BME280;24833;49.324;8.694;2024-01-15T13:10:12;98557.78;;;-0.42;100.00
38716;BME280;24833;49.324;8.694;2024-01-15T13:12:40;98567.28;;;-0.41;100.00
38716;BME280;24833;49.324;8.694;2024-01-15T13:15:09;98568.09;;;-0.40;100.00